Time;durP1;ratioP1;P1;durP2;ratioP2;P2;SDS_P1;SDS_P2;PMS_P1;PMS_P2;Temp;Humidity;BMP_temperature;BMP_pressure;BME280_temperature;BME280_humidity;BME280_pressure;Samples;Min_cycle;Max_cycle;Signal;HPM_P1;HPM_P2
2021/10/02 00:49:30;;;;;;;17.07;11.20;;;;;;;10.66;81.37;100988.74;5139580;57;21672;-74
2021/10/02 00:54:36;;;;;;;21.17;11.07;;;;;;;10.64;81.89;100990.64;5069940;58;21267;-73
2021/10/02 00:59:44;;;;;;;17.70;11.83;;;;;;;10.61;81.83;100993.98;5070056;58;21124;-74
2021/10/02 01:05:25;;;;;;;17.13;11.57;;;;;;;10.58;82.09;100990.59;5069822;58;21206;-74
2021/10/02 01:10:56;;;;;;;15.00;10.90;;;;;;;10.57;82.06;100986.73;5069577;58;21183;-73
2021/10/02 01:16:24;;;;;;;23.13;12.73;;;;;;;10.56;82.16;100981.91;5068218;58;21593;-73
2021/10/02 01:22:20;;;;;;;16.67;11.30;;;;;;;10.55;82.35;100980.69;5068029;58;21745;-74
2021/10/02 01:27:53;;;;;;;15.60;11.10;;;;;;;10.54;82.24;100981.67;5068314;58;21481;-74
2021/10/02 01:33:18;;;;;;;18.07;12.57;;;;;;;10.53;82.31;100976.86;5067863;57;21467;-74
2021/10/02 01:48:56;;;;;;;15.70;11.00;;;;;;;10.42;82.85;100958.70;5073619;57;21191;-73
2021/10/02 01:54:03;;;;;;;17.60;12.60;;;;;;;10.40;82.78;100960.61;5148679;57;21500;-74
2021/10/02 01:59:13;;;;;;;17.13;11.37;;;;;;;10.33;83.53;100952.28;5148812;57;21639;-74
2021/10/02 02:04:22;;;;;;;18.43;12.07;;;;;;;10.25;83.62;100941.38;5148841;57;21522;-73
2021/10/02 02:09:37;;;;;;;18.70;11.43;;;;;;;10.21;84.57;100934.16;5148563;57;21667;-74
2021/10/02 02:14:41;;;;;;;21.97;12.47;;;;;;;10.25;83.86;100937.88;5148461;57;21257;-73
2021/10/02 02:19:49;;;;;;;18.10;12.57;;;;;;;10.16;85.00;100924.34;5148641;57;21183;-74
2021/10/02 02:24:55;;;;;;;16.97;11.37;;;;;;;10.14;84.12;100931.99;5148643;57;21123;-73
2021/10/02 02:30:02;;;;;;;17.13;11.77;;;;;;;10.10;84.37;100923.42;5148639;57;21481;-73
2021/10/02 02:35:09;;;;;;;25.73;13.23;;;;;;;10.11;84.69;100922.48;5146929;57;21257;-74
2021/10/02 02:40:15;;;;;;;19.10;12.03;;;;;;;10.05;85.15;100911.03;5146756;57;21206;-73
2021/10/02 02:45:23;;;;;;;17.77;11.93;;;;;;;10.02;85.08;100917.84;5146813;57;21212;-73
2021/10/02 02:50:39;;;;;;;20.00;13.87;;;;;;;10.00;84.99;100913.12;5118767;57;21199;-74
2021/10/02 02:55:50;;;;;;;25.33;12.87;;;;;;;9.97;85.43;100907.20;5067892;58;21242;-74
2021/10/02 03:01:00;;;;;;;14.80;10.80;;;;;;;9.88;85.16;100898.13;5067821;58;21472;-74
2021/10/02 03:06:09;;;;;;;21.97;12.70;;;;;;;9.88;86.33;100888.41;5067751;58;21204;-73
2021/10/02 03:11:20;;;;;;;19.87;13.37;;;;;;;9.83;85.26;100886.55;5069251;58;21200;-74
2021/10/02 03:16:28;;;;;;;18.00;11.90;;;;;;;9.80;85.73;100885.91;5070108;58;21128;-73
2021/10/02 03:21:36;;;;;;;17.77;12.07;;;;;;;9.78;85.53;100886.48;5070328;58;21215;-74
2021/10/02 03:26:43;;;;;;;22.90;15.27;;;;;;;9.69;87.01;100883.16;5070233;58;21164;-73
2021/10/02 03:31:50;;;;;;;26.40;15.90;;;;;;;9.65;86.25;100882.98;5070202;58;21205;-73
2021/10/02 03:36:56;;;;;;;25.03;17.50;;;;;;;9.63;86.49;100878.28;5070071;57;21204;-73
2021/10/02 03:42:10;;;;;;;31.23;15.87;;;;;;;9.61;86.43;100874.92;5070181;58;21136;-73
2021/10/02 03:47:16;;;;;;;;;;;;;;;9.63;86.70;100868.56;5073903;58;21128;-73
2021/10/02 03:52:22;;;;;;;15.00;11.77;;;;;;;9.60;86.76;100862.19;5127516;57;20464;-74
2021/10/02 03:57:28;;;;;;;22.23;11.90;;;;;;;9.56;86.83;100862.02;5146574;57;21269;-74
2021/10/02 04:02:34;;;;;;;17.67;12.63;;;;;;;9.52;86.63;100853.93;5147117;57;21174;-75
2021/10/02 04:07:40;;;;;;;19.20;12.77;;;;;;;9.48;86.73;100854.61;5147232;57;21150;-74
2021/10/02 04:12:46;;;;;;;24.27;13.40;;;;;;;9.44;87.01;100856.26;5147352;57;21197;-74
2021/10/02 04:17:52;;;;;;;18.97;12.03;;;;;;;9.40;87.48;100860.05;5147518;57;21220;-74
2021/10/02 04:22:58;;;;;;;21.00;13.60;;;;;;;9.38;86.94;100860.14;5147274;57;21190;-74
2021/10/02 04:28:04;;;;;;;17.93;14.30;;;;;;;9.38;87.07;100858.83;5147233;57;21198;-74
2021/10/02 04:33:10;;;;;;;17.43;12.03;;;;;;;9.37;87.28;100854.97;5147012;57;21673;-74
2021/10/02 04:38:16;;;;;;;21.60;13.17;;;;;;;9.34;87.39;100850.73;5159738;57;21261;-74
2021/10/02 04:43:23;;;;;;;24.43;14.07;;;;;;;9.28;87.23;100857.77;5160437;57;22378;-74
2021/10/02 04:48:29;;;;;;;27.03;13.13;;;;;;;9.24;87.22;100855.42;5160312;57;21194;-73
2021/10/02 04:53:35;;;;;;;19.97;12.10;;;;;;;9.20;87.11;100850.81;5082541;57;21199;-74
2021/10/02 04:58:43;;;;;;;21.23;13.50;;;;;;;9.20;87.68;100848.64;5135251;57;21743;-74
2021/10/02 05:03:49;;;;;;;20.30;14.77;;;;;;;9.15;87.44;100851.14;5164802;57;21177;-74
2021/10/02 05:08:55;;;;;;;23.57;14.23;;;;;;;9.07;87.70;100845.50;5100846;57;21679;-73
2021/10/02 05:14:01;;;;;;;17.10;13.03;;;;;;;9.05;88.05;100845.23;5080905;58;21528;-74
2021/10/02 05:19:06;;;;;;;21.80;13.27;;;;;;;9.05;87.97;100849.19;5148141;57;21718;-73
2021/10/02 05:24:13;;;;;;;17.60;13.13;;;;;;;9.07;88.12;100849.94;5164905;57;21256;-73
2021/10/02 05:29:19;;;;;;;20.67;13.47;;;;;;;9.04;88.65;100844.86;5093912;57;21233;-73
2021/10/02 05:34:24;;;;;;;19.33;13.33;;;;;;;9.04;88.78;100844.86;5080781;58;21235;-73
2021/10/02 05:39:30;;;;;;;18.70;13.20;;;;;;;9.07;89.08;100849.47;5081154;58;21669;-73
2021/10/02 05:44:36;;;;;;;22.17;14.23;;;;;;;9.13;89.39;100840.31;5081362;58;21200;-73
2021/10/02 05:49:42;;;;;;;22.03;13.73;;;;;;;9.19;89.55;100839.88;5109317;57;21595;-73
2021/10/02 05:54:47;;;;;;;19.63;12.03;;;;;;;9.28;89.68;100854.27;5123660;57;21686;-74
2021/10/02 05:59:54;;;;;;;23.53;15.30;;;;;;;9.41;90.16;100852.02;5125036;57;21142;-73
2021/10/02 06:04:59;;;;;;;26.83;14.60;;;;;;;9.54;89.75;100859.95;5139740;57;21174;-74
2021/10/02 06:10:05;;;;;;;22.03;14.13;;;;;;;9.64;89.71;100859.69;5168388;57;21146;-73
2021/10/02 06:15:11;;;;;;;26.20;16.00;;;;;;;9.80;89.40;100862.12;5141419;57;21637;-74
2021/10/02 06:20:17;;;;;;;21.70;14.97;;;;;;;9.98;89.40;100858.22;5157187;57;21087;-74
2021/10/02 06:25:23;;;;;;;19.30;14.27;;;;;;;10.10;89.07;100856.03;5162827;57;22155;-75
2021/10/02 06:30:30;;;;;;;22.03;14.33;;;;;;;10.23;88.71;100850.28;5174240;57;21470;-75
2021/10/02 06:35:35;;;;;;;24.90;15.80;;;;;;;10.32;88.25;100856.73;5174206;57;21569;-73
2021/10/02 06:40:42;;;;;;;21.13;15.67;;;;;;;10.46;88.30;100864.52;5153783;57;21189;-74
2021/10/02 06:45:48;;;;;;;19.37;14.23;;;;;;;10.62;88.15;100866.06;5155835;57;21189;-74
2021/10/02 06:50:54;;;;;;;20.27;13.47;;;;;;;10.77;87.81;100845.95;5160327;57;21157;-74
2021/10/02 06:56:00;;;;;;;20.57;14.83;;;;;;;10.98;87.64;100850.63;5160126;57;21493;-74
2021/10/02 07:01:06;;;;;;;24.90;14.80;;;;;;;11.16;87.36;100846.11;5160504;57;21165;-74
2021/10/02 07:06:12;;;;;;;21.57;13.53;;;;;;;11.33;87.34;100838.70;5139532;57;21622;-75
2021/10/02 07:11:17;;;;;;;20.73;13.40;;;;;;;11.58;87.30;100835.91;5117694;57;21122;-74
2021/10/02 07:16:23;;;;;;;18.37;13.17;;;;;;;11.87;87.04;100837.17;5140018;57;21180;-74
2021/10/02 07:21:29;;;;;;;22.03;14.33;;;;;;;12.06;86.02;100840.56;5137507;57;21678;-74
2021/10/02 07:26:35;;;;;;;18.73;12.83;;;;;;;12.20;85.41;100845.62;5130503;57;21150;-73
2021/10/02 07:31:42;;;;;;;19.33;13.17;;;;;;;12.48;85.20;100843.41;5113518;57;21139;-73
2021/10/02 07:36:48;;;;;;;20.60;14.73;;;;;;;12.68;84.44;100836.83;5104378;57;21722;-74
2021/10/02 07:41:56;;;;;;;24.40;13.93;;;;;;;12.79;83.54;100830.67;5158193;57;21149;-73
2021/10/02 07:47:03;;;;;;;21.00;13.27;;;;;;;12.81;83.25;100823.43;5167900;57;21102;-84
2021/10/02 07:52:09;;;;;;;20.07;12.20;;;;;;;12.99;83.01;100817.06;5174015;57;21532;-73
2021/10/02 07:57:15;;;;;;;19.60;13.23;;;;;;;13.16;83.08;100815.69;5176128;57;21663;-74
2021/10/02 08:02:21;;;;;;;29.63;16.20;;;;;;;13.32;83.07;100811.62;5145827;57;21186;-75
2021/10/02 08:07:30;;;;;;;20.63;11.93;;;;;;;13.55;82.83;100812.83;5176290;57;21178;-75
2021/10/02 08:12:36;;;;;;;20.20;12.03;;;;;;;13.82;82.87;100806.47;5176086;57;21107;-75
2021/10/02 08:17:44;;;;;;;20.10;11.83;;;;;;;14.15;82.50;100796.03;5176032;57;21166;-75
2021/10/02 08:22:54;;;;;;;13.27;9.43;;;;;;;14.45;81.43;100797.83;5175627;57;21095;-75
2021/10/02 08:28:00;;;;;;;16.17;9.87;;;;;;;14.55;80.73;100798.67;5175125;57;21253;-75
2021/10/02 08:33:10;;;;;;;16.47;10.43;;;;;;;14.63;79.24;100790.86;5145259;57;21501;-75
2021/10/02 08:38:15;;;;;;;16.57;10.60;;;;;;;14.73;79.05;100785.53;5174461;57;22058;-74
2021/10/02 08:43:23;;;;;;;18.23;11.63;;;;;;;14.78;78.76;100785.48;5175427;57;21141;-74
2021/10/02 08:48:29;;;;;;;14.50;9.00;;;;;;;14.98;78.20;100783.63;5174404;57;21095;-74
2021/10/02 08:53:35;;;;;;;16.30;9.27;;;;;;;15.11;78.26;100781.55;5176003;57;21207;-74
2021/10/02 08:58:42;;;;;;;12.77;8.33;;;;;;;15.32;78.25;100780.03;5175021;57;21161;-75
2021/10/02 09:03:48;;;;;;;13.67;8.70;;;;;;;15.48;77.59;100780.27;5173167;57;21185;-74
2021/10/02 09:08:54;;;;;;;11.50;8.03;;;;;;;15.69;76.76;100776.61;5175773;57;21103;-74
2021/10/02 09:13:59;;;;;;;12.83;8.53;;;;;;;15.88;75.67;100771.20;5124544;57;21168;-74
2021/10/02 09:19:09;;;;;;;10.87;8.43;;;;;;;16.02;75.75;100771.21;5123313;57;21185;-74
2021/10/02 09:24:24;;;;;;;11.93;7.70;;;;;;;16.16;75.79;100764.05;5185276;56;21217;-74
2021/10/02 09:29:43;;;;;;;15.37;7.30;;;;;;;16.32;74.79;100761.56;5155638;57;21691;-73
2021/10/02 09:34:53;;;;;;;19.43;7.87;;;;;;;16.47;73.40;100760.55;5175778;57;21671;-72
2021/10/02 09:40:10;;;;;;;14.30;7.90;;;;;;;16.65;74.18;100754.73;5167640;57;21240;-73
2021/10/02 09:45:20;;;;;;;11.37;7.50;;;;;;;16.84;73.14;100751.07;5161284;57;21146;-74
2021/10/02 09:50:30;;;;;;;11.83;6.77;;;;;;;17.05;71.69;100748.08;5123091;57;21433;-74
2021/10/02 09:55:42;;;;;;;9.87;7.43;;;;;;;17.27;71.33;100749.40;5078581;58;21171;-73
2021/10/02 10:00:50;;;;;;;9.40;6.03;;;;;;;17.37;71.92;100759.02;5078696;58;21614;-74
2021/10/02 10:05:56;;;;;;;10.60;7.03;;;;;;;17.58;71.55;100749.27;5144757;57;21620;-74
2021/10/02 10:11:09;;;;;;;11.57;7.47;;;;;;;17.70;69.82;100749.39;5162409;57;21146;-73
2021/10/02 10:16:14;;;;;;;9.97;6.90;;;;;;;17.85;68.78;100729.56;5098091;57;21165;-73
2021/10/02 10:21:21;;;;;;;12.27;6.40;;;;;;;18.06;67.89;100722.42;5078753;58;21184;-74
2021/10/02 10:26:28;;;;;;;17.10;8.20;;;;;;;18.20;67.86;100725.81;5078553;58;21165;-75
2021/10/02 10:31:33;;;;;;;9.53;6.63;;;;;;;18.31;65.19;100723.36;5114629;57;21208;-75
2021/10/02 10:36:40;;;;;;;10.87;7.83;;;;;;;18.40;67.48;100723.69;5113681;57;21155;-75
2021/10/02 10:41:45;;;;;;;10.97;6.20;;;;;;;18.62;67.74;100711.05;5127974;57;21148;-75
2021/10/02 10:46:53;;;;;;;9.20;5.40;;;;;;;18.80;65.96;100717.06;5128285;57;21221;-74
2021/10/02 10:52:04;;;;;;;9.77;6.17;;;;;;;18.85;65.53;100701.33;5143991;57;21171;-74
2021/10/02 10:57:35;;;;;;;6.28;4.67;;;;;;;18.95;64.91;100698.46;5171131;57;21206;-74
2021/10/02 11:02:54;;;;;;;7.42;5.60;;;;;;;19.09;63.87;100696.47;5170975;57;21194;-74
2021/10/02 11:07:59;;;;;;;9.80;5.87;;;;;;;19.19;63.15;100703.81;5172754;57;21201;-74
2021/10/02 11:13:05;;;;;;;9.15;4.80;;;;;;;19.38;62.71;100699.09;5175615;57;21102;-74
2021/10/02 11:18:48;;;;;;;4.87;3.60;;;;;;;19.51;61.45;100699.41;5175541;57;21170;-74
2021/10/02 11:24:11;;;;;;;3.55;3.25;;;;;;;19.65;58.81;100690.64;5175979;57;21157;-74
2021/10/02 11:29:21;;;;;;;8.70;4.80;;;;;;;19.85;58.99;100695.94;5176161;57;21165;-74
2021/10/02 11:34:26;;;;;;;5.92;4.50;;;;;;;20.03;57.89;100687.60;5174837;57;21149;-74
2021/10/02 11:39:33;;;;;;;9.90;3.00;;;;;;;20.13;59.38;100679.34;5174882;57;21485;-74
2021/10/02 11:44:49;;;;;;;6.37;4.42;;;;;;;20.26;56.97;100684.97;5176207;57;21206;-74
2021/10/02 11:50:15;;;;;;;13.55;3.98;;;;;;;20.20;57.11;100679.78;5155328;57;21197;-74
2021/10/02 11:55:43;;;;;;;3.15;2.87;;;;;;;20.48;57.79;100696.25;5095910;57;21133;-74
2021/10/02 12:00:58;;;;;;;8.48;4.90;;;;;;;20.64;53.69;100685.88;5081130;58;21188;-74
2021/10/02 12:06:06;;;;;;;7.20;4.12;;;;;;;20.71;52.89;100686.84;5080962;58;21231;-75
2021/10/02 12:11:14;;;;;;;5.47;3.95;;;;;;;20.79;54.51;100693.48;5138901;56;21174;-75
2021/10/02 12:16:33;;;;;;;6.28;4.90;;;;;;;20.75;54.48;100702.12;5138298;57;21110;-74
2021/10/02 12:21:57;;;;;;;7.15;4.67;;;;;;;20.84;54.60;100684.37;5143722;57;21174;-74
2021/10/02 12:27:16;;;;;;;4.37;3.92;;;;;;;20.92;54.28;100687.52;5163228;57;21564;-73
2021/10/02 12:32:32;;;;;;;4.15;3.17;;;;;;;21.10;54.06;100687.16;5176116;57;21197;-73
2021/10/02 12:37:36;;;;;;;;;;;;;;;21.24;53.14;100675.61;5179784;57;21176;-73
2021/10/02 12:42:48;;;;;;;8.10;3.77;;;;;;;21.27;51.46;100688.19;5176011;57;20154;-75
2021/10/02 12:48:03;;;;;;;17.67;4.17;;;;;;;21.28;51.63;100683.14;5176572;57;21161;-75
2021/10/02 12:53:09;;;;;;;3.12;2.65;;;;;;;21.36;51.05;100680.89;5100747;57;21120;-75
2021/10/02 12:58:20;;;;;;;6.60;3.55;;;;;;;21.53;52.09;100665.39;5092056;58;22133;-76
2021/10/02 13:03:28;;;;;;;6.40;3.85;;;;;;;21.59;50.28;100676.73;5092135;58;21147;-75
2021/10/02 13:08:34;;;;;;;7.55;3.45;;;;;;;21.59;50.53;100670.01;5087753;58;21183;-76
2021/10/02 13:13:40;;;;;;;5.00;3.58;;;;;;;21.65;50.43;100661.20;5092012;58;21179;-75
2021/10/02 13:18:46;;;;;;;4.35;3.05;;;;;;;21.68;50.56;100650.89;5091821;58;21128;-76
2021/10/02 13:23:52;;;;;;;6.12;3.12;;;;;;;21.82;49.93;100645.67;5091832;58;21175;-76
2021/10/02 13:28:58;;;;;;;4.72;2.77;;;;;;;21.97;48.86;100637.05;5091962;58;21676;-76
2021/10/02 13:34:09;;;;;;;12.88;4.15;;;;;;;21.95;47.87;100640.44;5091962;58;21182;-76
2021/10/02 13:39:18;;;;;;;5.72;3.27;;;;;;;21.87;49.30;100630.59;5091867;58;22232;-75
2021/10/02 13:44:31;;;;;;;5.08;2.72;;;;;;;21.69;49.38;100630.20;5137028;57;21180;-76
2021/10/02 13:49:36;;;;;;;;;;;;;;;21.65;49.58;100639.16;5144098;57;22094;-76
2021/10/02 13:54:42;;;;;;;3.55;2.87;;;;;;;21.67;49.85;100636.28;5141812;57;20146;-75
2021/10/02 13:59:48;;;;;;;7.12;3.77;;;;;;;21.79;50.12;100636.63;5097369;57;21193;-75
2021/10/02 14:04:54;;;;;;;11.25;6.55;;;;;;;21.87;48.91;100635.98;5091323;58;21110;-75
2021/10/02 14:10:00;;;;;;;95.53;16.23;;;;;;;21.95;48.73;100635.89;5091647;58;21198;-76
2021/10/02 14:15:08;;;;;;;8.73;2.77;;;;;;;21.97;49.98;100630.31;5091533;58;21162;-75
2021/10/02 14:20:15;;;;;;;7.10;3.45;;;;;;;21.92;49.78;100634.08;5091579;58;21103;-75
2021/10/02 14:25:21;;;;;;;5.30;3.47;;;;;;;21.74;49.82;100633.97;5091473;58;21188;-74
2021/10/02 14:30:27;;;;;;;5.75;4.17;;;;;;;21.53;49.62;100633.93;5095788;57;21220;-75
2021/10/02 14:35:32;;;;;;;7.42;3.70;;;;;;;21.52;49.58;100642.19;5112870;57;21102;-75
2021/10/02 14:40:38;;;;;;;8.08;3.50;;;;;;;21.60;50.35;100631.30;5091438;57;21156;-75
2021/10/02 14:45:44;;;;;;;4.87;3.40;;;;;;;21.72;50.40;100630.63;5171034;57;21186;-75
2021/10/02 14:50:51;;;;;;;4.53;3.58;;;;;;;21.81;50.25;100623.80;5172731;57;21193;-75
2021/10/02 14:55:59;;;;;;;9.15;2.87;;;;;;;21.81;49.64;100619.77;5173754;57;21705;-75
2021/10/02 15:01:05;;;;;;;17.25;5.22;;;;;;;21.85;50.11;100621.87;5156015;57;21187;-75
2021/10/02 15:06:12;;;;;;;7.03;4.15;;;;;;;21.85;50.15;100615.65;5140855;57;21110;-76
2021/10/02 15:11:18;;;;;;;15.08;5.97;;;;;;;21.83;51.16;100619.07;5161204;57;21161;-75
2021/10/02 15:16:24;;;;;;;4.83;4.33;;;;;;;21.82;51.39;100621.44;5148053;57;21699;-75
2021/10/02 15:21:34;;;;;;;10.95;4.40;;;;;;;21.65;51.00;100619.47;5162395;57;21137;-74
2021/10/02 15:26:42;;;;;;;6.28;4.83;;;;;;;21.37;51.90;100624.20;5164996;57;21189;-75
2021/10/02 15:31:48;;;;;;;18.60;4.67;;;;;;;21.24;52.42;100621.81;5175439;57;21148;-74
2021/10/02 15:36:55;;;;;;;9.20;4.65;;;;;;;21.14;52.79;100639.55;5174882;57;21157;-76
2021/10/02 15:42:04;;;;;;;6.42;4.42;;;;;;;21.14;53.33;100634.67;5142411;57;21182;-76
2021/10/02 15:47:10;;;;;;;9.25;4.35;;;;;;;21.14;53.56;100630.64;5161972;57;21162;-75
2021/10/02 15:52:18;;;;;;;11.48;5.75;;;;;;;21.08;53.63;100631.70;5152429;57;21206;-76
2021/10/02 15:57:26;;;;;;;14.78;7.95;;;;;;;21.02;53.93;100638.34;5160825;57;21620;-76
2021/10/02 16:02:48;;;;;;;19.52;11.43;;;;;;;20.90;54.42;100641.16;5152667;57;21158;-76
2021/10/02 16:07:55;;;;;;;20.00;7.78;;;;;;;20.78;54.79;100636.70;5105219;57;21087;-76
2021/10/02 16:13:06;;;;;;;11.50;7.47;;;;;;;20.64;55.18;100635.66;5155298;57;22130;-76
2021/10/02 16:18:14;;;;;;;13.98;9.55;;;;;;;20.54;55.55;100649.02;5160673;57;21193;-76
2021/10/02 16:23:20;;;;;;;58.30;26.68;;;;;;;20.44;55.96;100643.91;5161044;57;21198;-75
2021/10/02 16:28:26;;;;;;;33.63;16.15;;;;;;;20.33;56.31;100639.73;5161922;57;21178;-75
2021/10/02 16:33:34;;;;;;;23.45;12.68;;;;;;;20.21;56.65;100641.68;5158313;57;21213;-75
2021/10/02 16:38:39;;;;;;;46.13;27.62;;;;;;;20.08;57.10;100637.41;5159734;57;21178;-75
2021/10/02 16:43:45;;;;;;;40.03;23.27;;;;;;;19.91;57.71;100630.79;5162202;57;21161;-77
2021/10/02 16:48:51;;;;;;;18.48;10.38;;;;;;;19.80;58.11;100641.09;5162352;57;21166;-76
2021/10/02 16:53:57;;;;;;;10.00;8.38;;;;;;;19.65;58.50;100634.30;5159954;57;21114;-78
2021/10/02 16:59:04;;;;;;;18.48;11.03;;;;;;;19.51;58.90;100632.34;5135900;57;21617;-76
2021/10/02 17:04:10;;;;;;;29.57;21.05;;;;;;;19.35;59.30;100629.19;5161952;57;21508;-76
2021/10/02 17:09:16;;;;;;;13.18;9.50;;;;;;;19.20;59.86;100623.70;5161239;57;21161;-77
2021/10/02 17:14:22;;;;;;;15.83;10.05;;;;;;;19.07;60.19;100634.64;5122431;57;21162;-77
2021/10/02 17:19:27;;;;;;;12.43;8.95;;;;;;;18.97;60.58;100642.34;5123283;57;21161;-77
2021/10/02 17:24:33;;;;;;;21.60;9.45;;;;;;;18.88;60.87;100642.03;5120442;57;21186;-77
2021/10/02 17:29:39;;;;;;;25.45;10.20;;;;;;;18.77;61.18;100635.69;5139425;57;21198;-78
2021/10/02 17:34:44;;;;;;;18.55;10.50;;;;;;;18.68;61.52;100633.17;5084407;57;21588;-77
2021/10/02 17:39:52;;;;;;;15.10;10.43;;;;;;;18.59;61.82;100641.72;5073143;58;21184;-78
2021/10/02 17:44:57;;;;;;;17.95;10.48;;;;;;;18.48;62.30;100628.14;5074613;58;21133;-77
2021/10/02 17:50:07;;;;;;;18.50;12.40;;;;;;;18.33;62.41;100624.45;5104032;57;21751;-76
2021/10/02 17:55:13;;;;;;;16.27;11.37;;;;;;;18.22;62.79;100628.27;5162061;57;21667;-78
2021/10/02 18:00:27;;;;;;;19.27;12.47;;;;;;;18.11;63.03;100627.27;5161811;57;21254;-77
2021/10/02 18:05:33;;;;;;;16.77;12.60;;;;;;;17.99;63.45;100629.92;5161861;57;21663;-77
2021/10/02 18:10:39;;;;;;;30.80;17.13;;;;;;;17.91;63.75;100630.73;5166117;57;21261;-77
2021/10/02 18:15:45;;;;;;;28.93;12.60;;;;;;;17.82;64.28;100633.05;5165710;57;21138;-77
2021/10/02 18:20:51;;;;;;;20.70;13.70;;;;;;;17.73;64.34;100633.17;5166213;57;21451;-77
2021/10/02 18:26:08;;;;;;;18.20;10.97;;;;;;;17.68;64.65;100623.48;5166063;57;21743;-76
2021/10/02 18:31:06;;;;;;;19.43;11.63;;;;;;;17.63;64.76;100620.41;5164045;57;21186;-78
2021/10/02 18:36:18;;;;;;;21.97;10.93;;;;;;;17.57;64.88;100628.57;5165950;57;21456;-78
2021/10/02 18:41:20;;;;;;;17.43;11.17;;;;;;;17.49;65.24;100624.05;5166394;57;22144;-77
2021/10/02 18:46:26;;;;;;;28.27;11.20;;;;;;;17.43;65.42;100636.70;5163892;57;21115;-77
2021/10/02 18:51:32;;;;;;;20.80;12.97;;;;;;;17.38;65.68;100636.38;5117164;57;21240;-77
2021/10/02 18:56:38;;;;;;;18.93;11.13;;;;;;;17.35;66.03;100633.17;5142293;57;21506;-77
2021/10/02 19:01:46;;;;;;;18.50;12.77;;;;;;;17.28;66.15;100627.61;5129866;57;21460;-77
2021/10/02 19:06:53;;;;;;;25.23;12.23;;;;;;;17.22;66.40;100625.09;5121658;57;21498;-77
2021/10/02 19:11:58;;;;;;;17.77;11.70;;;;;;;17.18;66.76;100619.72;5137842;57;21132;-77
2021/10/02 19:17:04;;;;;;;24.37;15.70;;;;;;;17.15;66.91;100611.17;5141171;57;21086;-77
2021/10/02 19:22:11;;;;;;;23.53;13.50;;;;;;;17.10;67.09;100609.00;5151241;57;21228;-77
2021/10/02 19:27:16;;;;;;;22.30;14.80;;;;;;;17.08;67.24;100612.83;5134583;57;21409;-77
2021/10/02 19:32:22;;;;;;;22.20;13.13;;;;;;;17.03;67.63;100612.45;5132619;57;21539;-77
2021/10/02 19:37:28;;;;;;;21.10;13.00;;;;;;;16.94;67.61;100597.38;5141738;57;21167;-76
2021/10/02 19:42:34;;;;;;;19.27;14.03;;;;;;;16.86;67.91;100603.50;5132340;57;21178;-76
2021/10/02 19:47:43;;;;;;;20.77;12.43;;;;;;;16.77;68.22;100611.97;5128411;57;21182;-76
2021/10/02 19:52:47;;;;;;;20.87;13.03;;;;;;;16.72;68.35;100602.24;5130338;57;21199;-77
2021/10/02 19:57:53;;;;;;;22.17;15.17;;;;;;;16.71;68.85;100601.90;5130971;57;21164;-77
2021/10/02 20:02:59;;;;;;;28.53;15.63;;;;;;;16.68;68.95;100599.53;5149276;57;21087;-76
2021/10/02 20:08:05;;;;;;;20.47;14.27;;;;;;;16.61;69.15;100596.30;5139386;57;21176;-76
2021/10/02 20:13:11;;;;;;;24.20;15.47;;;;;;;16.54;69.32;100599.58;5129067;57;21104;-76
2021/10/02 20:18:17;;;;;;;19.83;14.53;;;;;;;16.47;69.56;100589.69;5133887;57;21162;-76
2021/10/02 20:23:23;;;;;;;24.83;14.90;;;;;;;16.39;69.81;100590.94;5135308;57;21651;-77
2021/10/02 20:28:29;;;;;;;22.87;15.20;;;;;;;16.38;70.35;100589.27;5136477;57;21183;-77
2021/10/02 20:33:35;;;;;;;27.93;14.73;;;;;;;16.35;70.40;100587.73;5137719;57;21672;-77
2021/10/02 20:38:41;;;;;;;32.97;15.90;;;;;;;16.33;70.43;100593.75;5130939;57;21588;-78
2021/10/02 20:43:47;;;;;;;22.87;14.73;;;;;;;16.32;70.52;100592.56;5119201;57;21193;-77
2021/10/02 20:48:53;;;;;;;28.17;15.70;;;;;;;16.29;70.54;100597.71;5116167;57;21680;-77
2021/10/02 20:53:59;;;;;;;25.57;15.77;;;;;;;16.21;70.40;100590.11;5115715;57;21198;-78
2021/10/02 20:59:05;;;;;;;30.53;15.90;;;;;;;16.19;70.25;100591.10;5154615;57;21158;-75
2021/10/02 21:04:11;;;;;;;22.33;15.30;;;;;;;16.20;70.14;100583.94;5161347;57;21217;-78
2021/10/02 21:09:18;;;;;;;27.53;16.83;;;;;;;16.18;69.97;100581.95;5161084;57;21158;-76
2021/10/02 21:14:29;;;;;;;15.23;10.40;;;;;;;16.19;69.87;100579.62;5161189;57;21186;-76
2021/10/02 21:19:38;;;;;;;22.13;13.93;;;;;;;16.18;69.81;100586.78;5161564;57;21162;-76
2021/10/02 21:24:43;;;;;;;25.80;14.77;;;;;;;16.13;69.62;100577.55;5161761;57;21162;-78
2021/10/02 21:29:49;;;;;;;25.50;16.43;;;;;;;16.09;69.59;100573.02;5161134;57;21169;-76
2021/10/02 21:34:55;;;;;;;18.20;11.93;;;;;;;16.09;69.51;100571.67;5160674;57;21169;-77
2021/10/02 21:40:01;;;;;;;32.90;26.97;;;;;;;16.07;69.49;100578.16;5161169;57;22075;-78
2021/10/02 21:45:08;;;;;;;20.83;13.83;;;;;;;15.99;69.22;100573.59;5161479;57;21171;-76
2021/10/02 21:50:14;;;;;;;18.90;12.80;;;;;;;15.93;69.27;100571.52;5135919;57;21461;-77
2021/10/02 21:55:25;;;;;;;23.17;12.87;;;;;;;15.85;69.30;100570.13;5078316;57;21189;-77
2021/10/02 22:00:35;;;;;;;23.87;13.50;;;;;;;15.86;69.31;100578.97;5078527;57;21110;-76
2021/10/02 22:05:42;;;;;;;26.67;16.60;;;;;;;15.88;69.31;100579.66;5078648;57;21520;-77
2021/10/02 22:10:48;;;;;;;21.63;13.40;;;;;;;15.91;69.33;100584.17;5078563;57;21177;-78
2021/10/02 22:15:56;;;;;;;18.73;12.07;;;;;;;15.87;69.49;100570.81;5078446;57;21223;-77
2021/10/02 22:21:02;;;;;;;18.57;13.07;;;;;;;15.83;69.44;100568.10;5078625;57;21693;-78
2021/10/02 22:26:09;;;;;;;21.40;13.83;;;;;;;15.77;69.47;100569.53;5078811;57;21162;-78
2021/10/02 22:31:18;;;;;;;20.63;13.60;;;;;;;15.73;69.42;100566.84;5077630;57;21209;-77
2021/10/02 22:36:26;;;;;;;18.20;13.23;;;;;;;15.71;69.44;100558.16;5076905;57;22111;-76
2021/10/02 22:41:35;;;;;;;20.63;13.43;;;;;;;15.64;69.29;100561.06;5076101;57;22123;-77
2021/10/02 22:46:50;;;;;;;44.70;22.07;;;;;;;15.62;69.30;100557.70;5078065;57;21157;-77
2021/10/02 22:51:56;;;;;;;20.63;13.00;;;;;;;15.60;69.38;100558.84;5087137;57;22195;-77
2021/10/02 22:57:03;;;;;;;27.07;14.63;;;;;;;15.56;69.48;100552.16;5084978;58;21174;-77
2021/10/02 23:02:09;;;;;;;18.83;13.47;;;;;;;15.51;69.54;100552.56;5085358;58;21166;-77
2021/10/02 23:07:17;;;;;;;21.40;15.23;;;;;;;15.47;69.58;100557.34;5084594;58;21542;-78
2021/10/02 23:12:22;;;;;;;25.80;14.93;;;;;;;15.42;69.77;100556.14;5085248;58;21205;-78
2021/10/02 23:17:30;;;;;;;20.13;13.27;;;;;;;15.36;70.00;100550.90;5085257;58;21222;-78
2021/10/02 23:22:38;;;;;;;21.90;14.03;;;;;;;15.28;69.94;100562.78;5085457;58;21198;-76
2021/10/02 23:27:45;;;;;;;19.03;12.37;;;;;;;15.20;70.05;100561.36;5085311;58;22184;-78
2021/10/02 23:32:51;;;;;;;20.03;12.50;;;;;;;15.13;70.19;100565.09;5086754;58;21193;-77
2021/10/02 23:37:57;;;;;;;22.60;13.83;;;;;;;15.09;70.20;100567.73;5087357;58;21564;-77
2021/10/02 23:43:03;;;;;;;19.47;13.77;;;;;;;15.03;70.35;100557.64;5085198;58;21166;-77
2021/10/02 23:48:09;;;;;;;27.77;13.47;;;;;;;14.98;70.71;100561.72;5085008;58;21154;-77
2021/10/02 23:53:19;;;;;;;19.70;13.00;;;;;;;14.93;70.54;100562.67;5165329;57;21638;-78
2021/10/02 23:58:38;;;;;;;19.87;13.23;;;;;;;14.85;70.41;100570.53;5173920;57;21159;-77
